createdAt,value
2019-03-13T00:20:32.730Z,7.60
2019-03-13T00:23:01.834Z,7.60
2019-03-13T00:25:31.029Z,7.60
2019-03-13T00:31:03.023Z,7.60
2019-03-13T00:33:40.929Z,7.60
2019-03-13T00:51:44.023Z,7.60
2019-03-13T00:57:15.821Z,7.60
2019-03-13T00:59:44.683Z,7.50
2019-03-13T01:02:21.451Z,7.50
2019-03-13T01:04:59.091Z,7.40
2019-03-13T01:07:28.053Z,7.40
2019-03-13T01:09:56.999Z,7.40
2019-03-13T01:12:26.037Z,7.50
2019-03-13T01:15:21.559Z,7.40
2019-03-13T01:17:50.435Z,7.30
2019-03-13T01:20:19.351Z,7.10
2019-03-13T01:22:54.565Z,7.00
2019-03-13T01:25:19.075Z,7.00
2019-03-13T01:27:48.145Z,6.90
2019-03-13T01:30:16.991Z,6.90
2019-03-13T01:32:53.102Z,7.00
2019-03-13T01:35:46.933Z,6.90
2019-03-13T01:38:00.652Z,6.90
2019-03-13T01:40:29.456Z,6.80
2019-03-13T01:43:00.085Z,6.80
2019-03-13T01:45:46.357Z,6.90
2019-03-13T01:48:25.355Z,6.90
2019-03-13T01:51:03.423Z,6.90
2019-03-13T01:53:37.352Z,7.00
2019-03-13T01:56:09.257Z,7.00
2019-03-13T01:58:44.277Z,7.00
2019-03-13T02:01:16.467Z,7.00
2019-03-13T02:03:55.900Z,7.10
2019-03-13T02:06:29.660Z,7.10
2019-03-13T02:09:04.361Z,7.10
2019-03-13T02:11:33.506Z,7.10
2019-03-13T02:14:04.137Z,7.10
2019-03-13T02:16:48.661Z,7.00
2019-03-13T02:19:26.452Z,6.90
2019-03-13T02:22:03.033Z,6.90
2019-03-13T02:24:40.757Z,6.90
2019-03-13T02:27:32.173Z,6.90
2019-03-13T02:30:10.897Z,6.80
2019-03-13T02:32:58.093Z,6.90
2019-03-13T02:35:30.560Z,6.80
2019-03-13T02:38:11.868Z,6.80
2019-03-13T02:40:48.915Z,6.80
2019-03-13T02:49:42.396Z,6.90
2019-03-13T02:52:37.143Z,6.90
2019-03-13T02:55:20.751Z,7.00
2019-03-13T02:57:58.961Z,6.90
2019-03-13T03:00:55.222Z,6.90
2019-03-13T03:12:30.209Z,6.80
2019-03-13T03:15:11.783Z,6.80
2019-03-13T03:17:45.307Z,6.90
2019-03-13T03:20:26.850Z,6.90
2019-03-13T03:22:55.673Z,6.90
2019-03-13T03:28:03.500Z,6.90
2019-03-13T03:30:32.620Z,6.90
2019-03-13T03:33:03.909Z,6.90
2019-03-13T03:35:32.104Z,6.70
2019-03-13T03:38:00.970Z,6.80
2019-03-13T03:40:29.904Z,6.80
2019-03-13T03:42:59.111Z,6.90
2019-03-13T03:45:35.707Z,7.00
2019-03-13T03:48:04.782Z,6.90
2019-03-13T03:50:41.721Z,6.90
2019-03-13T03:53:10.721Z,6.90
2019-03-13T03:55:39.624Z,7.00
2019-03-13T03:58:08.733Z,7.00
2019-03-13T04:25:51.202Z,7.20
2019-03-13T04:28:00.821Z,7.30
2019-03-13T05:04:20.716Z,7.50
2019-03-13T05:06:26.087Z,7.50
2019-03-13T05:35:22.659Z,7.50
2019-03-13T05:38:06.309Z,7.50
2019-03-13T05:43:43.347Z,7.50
2019-03-13T05:46:44.749Z,7.30
2019-03-13T05:52:46.947Z,7.20
2019-03-13T05:55:16.051Z,7.20
2019-03-13T05:57:51.533Z,7.10
2019-03-13T06:00:22.229Z,7.10
2019-03-13T06:02:56.778Z,7.10
2019-03-13T06:05:25.673Z,7.10
2019-03-13T06:07:54.390Z,7.10
2019-03-13T06:13:47.798Z,7.30
2019-03-13T06:16:19.379Z,7.20
2019-03-13T06:18:48.427Z,7.20
2019-03-13T06:21:20.208Z,7.10
2019-03-13T06:23:50.375Z,7.20
2019-03-13T06:26:19.058Z,7.20
2019-03-13T06:28:58.109Z,7.20
2019-03-13T06:31:29.532Z,7.20
2019-03-13T06:33:58.173Z,7.20
2019-03-13T06:36:26.854Z,7.00
2019-03-13T06:39:09.597Z,7.10
2019-03-13T06:41:38.313Z,7.10
2019-03-13T06:44:09.955Z,7.20
2019-03-13T06:46:38.635Z,7.20
2019-03-13T06:49:07.331Z,7.20
2019-03-13T06:51:41.189Z,7.20
2019-03-13T06:54:09.905Z,7.30
2019-03-13T06:56:38.512Z,7.30
2019-03-13T06:59:08.827Z,7.30
2019-03-13T07:01:41.835Z,7.40
2019-03-13T07:04:23.879Z,7.40
2019-03-13T07:06:56.887Z,7.60
2019-03-13T07:09:27.234Z,7.80
2019-03-13T07:12:14.040Z,8.00
2019-03-13T07:14:44.437Z,8.10
2019-03-13T07:17:14.684Z,8.20
2019-03-13T07:19:59.941Z,8.20
2019-03-13T07:22:45.871Z,8.30
2019-03-13T07:25:26.007Z,8.30
2019-03-13T07:28:04.219Z,8.30
2019-03-13T07:30:37.254Z,8.30
2019-03-13T07:33:24.261Z,8.10
2019-03-13T07:35:54.590Z,8.00
2019-03-13T07:38:44.623Z,8.10
2019-03-13T07:41:20.927Z,8.10
2019-03-13T07:43:59.953Z,8.20
2019-03-13T07:46:39.235Z,8.30
2019-03-13T07:49:25.659Z,8.40
2019-03-13T07:51:58.681Z,8.50
2019-03-13T07:54:37.663Z,8.60
2019-03-13T07:57:13.782Z,8.70
2019-03-13T07:59:49.755Z,8.80
2019-03-13T08:02:25.917Z,8.80
2019-03-13T08:04:56.113Z,8.80
2019-03-13T08:10:25.759Z,8.90
2019-03-13T08:12:58.443Z,8.80
2019-03-13T08:15:45.268Z,8.50
2019-03-13T08:18:18.565Z,8.40
2019-03-13T08:21:00.917Z,8.40
2019-03-13T08:23:52.191Z,8.40
2019-03-13T08:26:24.150Z,8.50
2019-03-13T08:29:09.356Z,8.50
2019-03-13T08:31:43.864Z,8.60
2019-03-13T08:34:31.909Z,8.80
2019-03-13T08:37:08.186Z,8.90
2019-03-13T08:39:53.629Z,8.90
2019-03-13T08:42:29.772Z,9.00
2019-03-13T08:45:18.244Z,9.00
2019-03-13T08:47:48.580Z,9.10
2019-03-13T08:50:25.063Z,9.10
2019-03-13T08:53:12.052Z,9.20
2019-03-13T08:56:00.529Z,9.20
2019-03-13T08:58:46.018Z,9.20
2019-03-13T09:01:16.385Z,9.30
2019-03-13T09:03:46.723Z,9.20
2019-03-13T09:06:33.579Z,9.30
2019-03-13T09:09:04.021Z,9.40
2019-03-13T09:11:40.186Z,9.40
2019-03-13T09:14:32.560Z,9.30
2019-03-13T09:17:08.706Z,9.40
2019-03-13T09:19:44.875Z,9.50
2019-03-13T09:22:37.963Z,9.50
2019-03-13T09:25:13.449Z,9.60
2019-03-13T09:27:59.986Z,9.60
2019-03-13T09:30:46.329Z,9.60
2019-03-13T09:33:28.917Z,9.60
2019-03-13T09:36:00.780Z,9.80
2019-03-13T09:38:40.105Z,9.90
2019-03-13T09:41:12.920Z,10.00
2019-03-13T09:43:43.107Z,9.90
2019-03-13T09:46:14.873Z,9.90
2019-03-13T09:48:53.845Z,9.90
2019-03-13T09:51:42.433Z,9.90
2019-03-13T09:54:24.485Z,9.90
2019-03-13T09:56:54.722Z,9.90
2019-03-13T09:59:42.635Z,9.90
2019-03-13T10:02:02.718Z,9.90
2019-03-13T10:04:35.797Z,10.00
2019-03-13T10:07:22.768Z,9.90
2019-03-13T10:09:54.036Z,9.90
2019-03-13T10:12:26.953Z,9.90
2019-03-13T10:15:14.016Z,9.90
2019-03-13T10:21:02.708Z,10.00
2019-03-13T10:23:35.663Z,9.90
2019-03-13T10:26:22.318Z,10.00
2019-03-13T10:29:01.298Z,10.00
2019-03-13T10:31:31.557Z,10.10
2019-03-13T10:34:04.800Z,10.20
2019-03-13T10:36:38.129Z,10.30
2019-03-13T10:39:19.055Z,10.30
2019-03-13T10:41:58.499Z,10.30
2019-03-13T10:44:39.122Z,10.40
2019-03-13T10:47:25.453Z,10.40
2019-03-13T10:49:58.830Z,10.50
2019-03-13T10:52:29.336Z,10.50
2019-03-13T10:55:04.063Z,10.60
2019-03-13T10:57:42.911Z,10.60
2019-03-13T11:03:34.716Z,10.60
2019-03-13T11:06:26.449Z,10.50
2019-03-13T11:09:13.576Z,10.60
2019-03-13T11:12:15.694Z,10.50
2019-03-13T11:17:44.060Z,10.60
2019-03-13T11:20:19.450Z,10.70
2019-03-13T11:28:37.355Z,10.80
2019-03-13T11:31:58.786Z,10.80
2019-03-13T11:35:28.698Z,10.90
2019-03-13T11:41:03.590Z,10.90
2019-03-13T11:43:49.912Z,11.20
2019-03-13T11:46:20.244Z,11.40
2019-03-13T11:48:59.698Z,11.60
2019-03-13T11:51:45.202Z,11.50
2019-03-13T11:54:15.556Z,11.40
2019-03-13T11:56:48.487Z,11.40
2019-03-13T11:59:35.372Z,11.20
2019-03-13T12:02:22.066Z,11.00
2019-03-13T12:04:56.194Z,11.00
2019-03-13T12:07:29.414Z,10.80
2019-03-13T12:09:59.691Z,10.80
2019-03-13T12:12:32.574Z,10.80
2019-03-13T12:15:15.083Z,10.80
2019-03-13T12:17:54.594Z,10.80
2019-03-13T12:20:33.727Z,10.80
2019-03-13T12:23:06.686Z,10.80
2019-03-13T12:25:53.152Z,10.90
2019-03-13T12:28:23.408Z,11.10
2019-03-13T12:34:38.368Z,11.20
2019-03-13T12:37:15.096Z,11.10
2019-03-13T12:40:33.749Z,11.10
2019-03-13T12:59:04.013Z,11.00
2019-03-13T13:01:34.290Z,11.00
2019-03-13T13:04:04.557Z,10.70
2019-03-13T13:06:51.160Z,10.70
2019-03-13T13:09:21.511Z,10.70
2019-03-13T13:11:51.812Z,10.80
2019-03-13T13:14:22.394Z,10.80
2019-03-13T13:16:55.586Z,10.80
2019-03-13T13:19:26.929Z,10.70
2019-03-13T13:21:55.665Z,10.60
2019-03-13T13:24:24.280Z,10.30
2019-03-13T13:26:54.794Z,10.20
2019-03-13T13:29:26.803Z,10.30
2019-03-13T13:31:57.344Z,10.30
2019-03-13T13:34:27.643Z,10.50
2019-03-13T13:37:01.541Z,10.60
2019-03-13T13:39:33.297Z,10.70
2019-03-13T13:42:15.442Z,10.80
2019-03-13T13:44:47.500Z,10.80
2019-03-13T13:47:16.907Z,10.90
2019-03-13T13:49:58.642Z,11.10
2019-03-13T13:52:30.380Z,11.20
2019-03-13T13:55:00.591Z,11.10
2019-03-13T13:57:29.253Z,11.00
2019-03-13T13:59:59.273Z,10.90
2019-03-13T14:02:28.146Z,10.70
2019-03-13T14:04:56.875Z,10.70
2019-03-13T14:07:25.755Z,10.90
2019-03-13T14:10:14.262Z,10.90
2019-03-13T14:12:42.975Z,11.00
2019-03-13T14:15:13.335Z,11.00
2019-03-13T14:17:42.119Z,11.20
2019-03-13T14:20:13.026Z,11.20
2019-03-13T14:22:41.839Z,11.10
2019-03-13T14:25:11.982Z,11.10
2019-03-13T14:27:40.626Z,11.10
2019-03-13T14:30:18.153Z,11.00
2019-03-13T14:32:46.995Z,11.00
2019-03-13T14:35:16.437Z,10.90
2019-03-13T14:37:45.170Z,10.70
2019-03-13T14:40:19.390Z,10.40
2019-03-13T14:42:49.298Z,10.40
2019-03-13T14:45:20.186Z,10.40
2019-03-13T14:50:55.258Z,10.50
2019-03-13T14:55:09.803Z,10.50
2019-03-13T14:56:10.100Z,11.00
2019-03-13T14:58:55.357Z,11.00
2019-03-13T15:01:25.713Z,11.00
2019-03-13T15:04:10.055Z,10.90
2019-03-13T15:06:38.933Z,10.80
2019-03-13T15:12:23.697Z,10.70
2019-03-13T15:15:24.083Z,10.50
2019-03-13T15:20:56.533Z,10.30
2019-03-13T15:32:13.681Z,10.20
2019-03-13T15:34:48.764Z,10.20
2019-03-13T15:37:19.359Z,10.30
2019-03-13T15:39:50.920Z,10.50
2019-03-13T15:42:21.463Z,10.50
2019-03-13T15:44:50.257Z,10.50
2019-03-13T15:47:35.511Z,10.50
2019-03-13T15:56:56.836Z,10.60
2019-03-13T16:01:58.683Z,10.60
2019-03-13T16:16:26.071Z,10.90
2019-03-13T16:25:15.854Z,11.00
2019-03-13T16:27:48.167Z,10.90
2019-03-13T16:30:37.287Z,10.80
2019-03-13T16:33:08.746Z,10.80
2019-03-13T16:35:40.745Z,10.60
2019-03-13T16:38:12.451Z,10.60
2019-03-13T16:40:41.172Z,10.50
2019-03-13T16:43:09.977Z,10.60
2019-03-13T16:45:38.851Z,10.60
2019-03-13T16:48:08.244Z,10.70
2019-03-13T16:50:38.305Z,10.80
2019-03-13T16:53:11.479Z,10.90
2019-03-13T16:55:40.528Z,10.70
2019-03-13T16:58:18.120Z,10.80
2019-03-13T17:00:51.538Z,10.60
2019-03-13T17:03:48.856Z,10.60
2019-03-13T17:06:17.715Z,10.60
2019-03-13T17:08:46.344Z,10.60
2019-03-13T17:11:22.808Z,10.60
2019-03-13T17:13:51.569Z,10.50
2019-03-13T17:16:29.771Z,10.60
2019-03-13T17:18:58.480Z,10.50
2019-03-13T17:21:27.230Z,10.70
2019-03-13T17:23:56.040Z,10.70
2019-03-13T17:26:24.785Z,10.80
2019-03-13T17:28:53.448Z,10.80
2019-03-13T17:31:24.871Z,10.70
2019-03-13T17:33:53.613Z,10.70
2019-03-13T17:36:22.480Z,10.60
2019-03-13T17:38:51.253Z,10.60
2019-03-13T17:41:19.971Z,10.70
2019-03-13T17:43:48.507Z,10.70
2019-03-13T17:46:17.325Z,10.70
2019-03-13T17:48:45.945Z,10.70
2019-03-13T17:51:16.912Z,10.80
2019-03-13T17:53:45.063Z,10.70
2019-03-13T17:56:13.821Z,10.80
2019-03-13T17:58:42.530Z,10.80
2019-03-13T18:01:11.266Z,10.70
2019-03-13T18:03:39.902Z,10.60
2019-03-13T18:06:08.623Z,10.60
2019-03-13T18:08:37.330Z,10.60
2019-03-13T18:11:06.171Z,10.60
2019-03-13T18:13:36.806Z,10.60
2019-03-13T18:16:11.326Z,10.60
2019-03-13T18:18:42.716Z,10.60
2019-03-13T18:21:11.453Z,10.50
2019-03-13T18:23:40.090Z,10.50
2019-03-13T18:26:08.813Z,10.40
2019-03-13T18:28:37.447Z,10.50
2019-03-13T18:31:06.107Z,10.40
2019-03-13T18:33:34.759Z,10.50
2019-03-13T18:36:03.497Z,10.40
2019-03-13T18:38:32.312Z,10.40
2019-03-13T18:41:04.415Z,10.50
2019-03-13T18:43:33.237Z,10.50
2019-03-13T18:46:09.356Z,10.40
2019-03-13T18:48:38.291Z,10.30
2019-03-13T18:51:15.076Z,10.30
2019-03-13T18:53:46.561Z,10.20
2019-03-13T18:56:27.790Z,10.20
2019-03-13T18:58:56.510Z,10.20
2019-03-13T19:01:30.955Z,10.20
2019-03-13T19:03:59.659Z,10.20
2019-03-13T19:06:28.374Z,10.20
2019-03-13T19:08:57.295Z,10.10
2019-03-13T19:11:33.957Z,10.20
2019-03-13T19:14:05.495Z,10.20
2019-03-13T19:16:34.219Z,10.30
2019-03-13T19:19:02.911Z,10.40
2019-03-13T19:21:31.651Z,10.40
2019-03-13T19:24:02.534Z,10.40
2019-03-13T19:26:30.887Z,10.50
2019-03-13T19:29:02.716Z,10.60
2019-03-13T19:31:44.767Z,10.60
2019-03-13T19:34:16.239Z,10.40
2019-03-13T19:36:45.075Z,10.40
2019-03-13T19:39:13.878Z,10.30
2019-03-13T19:41:59.947Z,10.30
2019-03-13T19:44:23.032Z,10.20
2019-03-13T19:46:57.652Z,10.10
2019-03-13T19:49:26.396Z,10.20
2019-03-13T19:51:55.828Z,10.10
2019-03-13T19:54:26.331Z,10.10
2019-03-13T19:57:04.029Z,10.00
2019-03-13T19:59:36.956Z,10.10
2019-03-13T20:02:34.214Z,10.20
2019-03-13T20:05:12.223Z,10.30
2019-03-13T20:07:42.845Z,10.30
2019-03-13T20:10:16.924Z,10.10
2019-03-13T20:12:45.954Z,10.00
2019-03-13T20:15:16.920Z,10.10
2019-03-13T20:17:45.860Z,10.10
2019-03-13T20:20:19.591Z,10.10
2019-03-13T20:22:56.794Z,10.00
2019-03-13T20:25:25.317Z,10.00
2019-03-13T20:27:57.045Z,10.00
2019-03-13T20:30:29.971Z,10.00
2019-03-13T20:32:58.696Z,10.00
2019-03-13T20:35:30.503Z,10.00
2019-03-13T20:37:59.314Z,10.00
2019-03-13T20:40:34.604Z,10.00
2019-03-13T20:43:03.163Z,10.00
2019-03-13T20:45:32.221Z,10.00
2019-03-13T20:48:05.299Z,10.00
2019-03-13T20:50:37.296Z,9.90
2019-03-13T20:53:04.670Z,9.90
2019-03-13T20:55:33.574Z,9.80
2019-03-13T20:58:02.269Z,9.90
2019-03-13T21:00:34.271Z,10.00
2019-03-13T21:03:01.583Z,10.00
2019-03-13T21:05:30.491Z,10.00
2019-03-13T21:07:59.286Z,10.00
2019-03-13T21:10:28.116Z,9.90
2019-03-13T21:12:59.007Z,9.90
2019-03-13T21:15:31.323Z,9.80
2019-03-13T21:18:01.761Z,9.80
2019-03-13T21:20:30.555Z,9.80
2019-03-13T21:22:59.421Z,9.80
2019-03-13T21:25:28.199Z,9.80
2019-03-13T21:27:56.723Z,9.80
2019-03-13T21:30:26.753Z,9.80
2019-03-13T21:32:55.779Z,9.80
2019-03-13T21:35:24.631Z,9.70
2019-03-13T21:37:53.393Z,9.80
2019-03-13T21:40:27.204Z,9.80
2019-03-13T21:42:55.993Z,9.80
2019-03-13T21:45:25.908Z,9.80
2019-03-13T21:48:11.126Z,9.80
2019-03-13T21:51:12.023Z,9.70
2019-03-13T22:06:27.994Z,9.70
2019-03-13T22:08:53.437Z,9.80
2019-03-13T22:11:23.086Z,9.80
2019-03-13T22:14:02.402Z,9.70
2019-03-13T22:16:54.689Z,9.70
2019-03-13T22:19:26.215Z,9.70
2019-03-13T22:22:01.168Z,9.50
2019-03-13T22:24:49.689Z,9.40
2019-03-13T22:30:45.691Z,9.40
2019-03-13T22:34:26.647Z,9.40
2019-03-13T22:39:32.987Z,9.50
2019-03-13T22:42:01.849Z,9.60
2019-03-13T22:44:30.735Z,9.60
2019-03-13T22:46:59.668Z,9.60
2019-03-13T22:49:28.523Z,9.60
2019-03-13T22:51:57.407Z,9.60
2019-03-13T22:54:26.257Z,9.50
2019-03-13T22:56:55.180Z,9.50
2019-03-13T22:59:24.068Z,9.50
2019-03-13T23:01:54.388Z,9.60
2019-03-13T23:04:29.021Z,9.50
2019-03-13T23:06:57.864Z,9.40
2019-03-13T23:09:27.110Z,9.40
2019-03-13T23:11:55.993Z,9.40
2019-03-13T23:14:24.892Z,9.40
2019-03-13T23:16:54.393Z,9.40
2019-03-13T23:19:23.584Z,9.40
2019-03-13T23:21:52.345Z,9.40
2019-03-13T23:24:21.076Z,9.40
2019-03-13T23:26:49.724Z,9.40
2019-03-13T23:29:18.488Z,9.50
2019-03-13T23:31:47.173Z,9.40
2019-03-13T23:34:15.844Z,9.40
2019-03-13T23:36:44.714Z,9.30
2019-03-13T23:39:13.361Z,9.30
2019-03-13T23:41:42.200Z,9.20
2019-03-13T23:44:10.946Z,9.30
2019-03-13T23:46:39.722Z,9.30
2019-03-13T23:49:08.615Z,9.30
2019-03-13T23:51:37.307Z,9.30
2019-03-13T23:54:07.447Z,9.20
2019-03-13T23:56:36.308Z,9.30
2019-03-13T23:59:05.266Z,9.20
